createdAt,value
2022-09-27T00:02:32.819Z,18.28
2022-09-27T00:05:18.925Z,18.36
2022-09-27T00:08:05.136Z,18.29
2022-09-27T00:10:59.339Z,18.30
2022-09-27T00:13:45.782Z,18.30
2022-09-27T00:16:34.368Z,18.31
2022-09-27T00:19:22.679Z,18.33
2022-09-27T00:22:08.615Z,18.23
2022-09-27T00:24:55.114Z,18.34
2022-09-27T00:27:41.005Z,18.34
2022-09-27T00:30:27.243Z,18.32
2022-09-27T00:33:13.261Z,18.32
2022-09-27T00:36:06.685Z,18.33
2022-09-27T00:38:53.339Z,18.26
2022-09-27T00:41:39.816Z,18.25
2022-09-27T00:44:37.968Z,18.33
2022-09-27T00:47:23.792Z,18.35
2022-09-27T00:50:22.182Z,18.21
2022-09-27T00:53:11.480Z,18.34
2022-09-27T00:56:02.486Z,18.30
2022-09-27T00:58:54.184Z,18.30
2022-09-27T01:01:40.923Z,18.31
2022-09-27T01:04:28.481Z,18.35
2022-09-27T01:07:15.204Z,18.31
2022-09-27T01:10:01.755Z,18.20
2022-09-27T01:13:19.794Z,18.04
2022-09-27T01:16:20.033Z,18.29
2022-09-27T01:19:27.042Z,18.30
2022-09-27T01:22:45.717Z,18.20
2022-09-27T01:26:04.222Z,18.23
2022-09-27T01:29:07.537Z,18.25
2022-09-27T01:32:11.980Z,18.14
2022-09-27T01:34:57.933Z,18.20
2022-09-27T01:37:55.834Z,18.24
2022-09-27T01:41:12.588Z,18.12
2022-09-27T01:44:09.490Z,18.18
2022-09-27T01:47:10.221Z,18.25
2022-09-27T01:50:25.621Z,18.23
2022-09-27T01:53:24.310Z,18.18
2022-09-27T01:56:32.220Z,18.23
2022-09-27T01:59:31.332Z,18.18
2022-09-27T02:02:34.210Z,18.21
2022-09-27T02:05:44.042Z,18.22
2022-09-27T02:08:48.861Z,18.08
2022-09-27T02:12:00.290Z,18.14
2022-09-27T02:14:55.385Z,18.17
2022-09-27T02:18:11.142Z,18.12
2022-09-27T02:21:01.533Z,18.19
2022-09-27T02:23:52.723Z,18.17
2022-09-27T02:26:44.957Z,18.19
2022-09-27T02:29:39.936Z,18.15
2022-09-27T02:32:27.426Z,18.22
2022-09-27T02:35:26.950Z,18.16
2022-09-27T02:38:13.913Z,18.24
2022-09-27T02:41:00.153Z,18.24
2022-09-27T02:43:49.989Z,18.25
2022-09-27T02:46:53.210Z,18.24
2022-09-27T02:49:58.364Z,18.20
2022-09-27T02:53:30.551Z,18.15
2022-09-27T02:56:28.097Z,18.21
2022-09-27T02:59:49.733Z,18.14
2022-09-27T03:02:56.082Z,18.10
2022-09-27T03:06:07.050Z,18.13
2022-09-27T03:08:53.588Z,18.21
2022-09-27T03:11:39.572Z,18.21
2022-09-27T03:14:25.966Z,18.18
2022-09-27T03:17:26.398Z,18.24
2022-09-27T03:20:35.514Z,18.17
2022-09-27T03:23:30.207Z,18.19
2022-09-27T03:26:17.332Z,18.09
2022-09-27T03:29:03.473Z,18.19
2022-09-27T03:31:49.560Z,18.18
2022-09-27T03:34:50.536Z,18.21
2022-09-27T03:37:36.767Z,18.22
2022-09-27T03:40:23.125Z,18.18
2022-09-27T03:43:09.250Z,18.17
2022-09-27T03:45:55.452Z,18.15
2022-09-27T03:48:42.693Z,18.22
2022-09-27T03:51:29.275Z,18.22
2022-09-27T03:54:15.381Z,18.21
2022-09-27T03:57:01.053Z,18.20
2022-09-27T03:59:47.298Z,18.20
2022-09-27T04:02:52.156Z,18.15
2022-09-27T04:05:44.179Z,18.16
2022-09-27T04:08:35.222Z,18.19
2022-09-27T04:11:23.792Z,18.13
2022-09-27T04:14:13.001Z,18.20
2022-09-27T04:17:17.896Z,18.19
2022-09-27T04:20:20.338Z,18.20
2022-09-27T04:23:06.332Z,18.20
2022-09-27T04:25:54.094Z,18.15
2022-09-27T04:28:58.445Z,18.21
2022-09-27T04:31:44.841Z,18.11
2022-09-27T04:34:49.026Z,18.01
2022-09-27T04:37:41.999Z,18.05
2022-09-27T04:40:28.036Z,18.12
2022-09-27T04:43:13.833Z,18.10
2022-09-27T04:45:59.709Z,18.08
2022-09-27T04:48:46.026Z,18.12
2022-09-27T04:51:31.917Z,18.03
2022-09-27T04:54:19.221Z,18.07
2022-09-27T04:57:18.357Z,18.16
2022-09-27T05:00:05.558Z,18.15
2022-09-27T05:02:51.780Z,18.15
2022-09-27T05:06:04.119Z,18.06
2022-09-27T05:08:50.329Z,18.11
2022-09-27T05:11:39.372Z,18.13
2022-09-27T05:14:43.786Z,18.00
2022-09-27T05:17:42.755Z,17.88
2022-09-27T05:20:59.062Z,18.11
2022-09-27T05:23:54.747Z,18.13
2022-09-27T05:26:41.998Z,18.12
2022-09-27T05:29:28.187Z,18.13
2022-09-27T05:32:32.828Z,18.15
2022-09-27T05:35:52.759Z,18.15
2022-09-27T05:47:05.547Z,17.36
2022-09-27T05:49:53.935Z,17.33
2022-09-27T05:52:40.016Z,17.55
2022-09-27T05:55:26.793Z,17.65
2022-09-27T05:58:16.236Z,17.81
2022-09-27T06:01:11.903Z,17.88
2022-09-27T06:04:17.053Z,17.87
2022-09-27T06:07:15.091Z,18.01
2022-09-27T06:10:01.398Z,17.99
2022-09-27T06:12:47.469Z,18.17
2022-09-27T06:15:54.084Z,18.20
2022-09-27T06:18:40.604Z,18.22
2022-09-27T06:21:28.776Z,18.29
2022-09-27T06:24:16.865Z,18.17
2022-09-27T06:27:04.753Z,18.28
2022-09-27T06:30:20.367Z,18.28
2022-09-27T06:33:17.559Z,18.39
2022-09-27T06:36:09.864Z,18.36
2022-09-27T06:38:58.174Z,18.45
2022-09-27T06:41:57.853Z,18.51
2022-09-27T06:45:07.241Z,18.48
2022-09-27T06:48:06.521Z,18.45
2022-09-27T06:51:00.219Z,18.58
2022-09-27T06:53:46.400Z,18.59
2022-09-27T06:56:32.375Z,18.60
2022-09-27T06:59:36.748Z,18.66
2022-09-27T07:02:41.375Z,18.66
2022-09-27T07:05:59.118Z,18.68
2022-09-27T07:09:08.133Z,18.74
2022-09-27T07:11:55.318Z,18.77
2022-09-27T07:14:41.421Z,18.62
2022-09-27T07:17:31.555Z,18.93
2022-09-27T07:20:18.663Z,18.89
2022-09-27T07:23:06.723Z,19.00
2022-09-27T07:25:53.129Z,19.04
2022-09-27T07:28:41.590Z,19.08
2022-09-27T07:31:30.106Z,19.14
2022-09-27T07:34:18.238Z,19.07
2022-09-27T07:37:05.685Z,19.11
2022-09-27T07:39:56.249Z,19.22
2022-09-27T07:42:44.047Z,19.26
2022-09-27T07:45:31.260Z,19.27
2022-09-27T07:48:41.267Z,19.19
2022-09-27T07:51:47.414Z,19.23
2022-09-27T07:55:06.411Z,19.15
2022-09-27T07:58:10.149Z,19.11
2022-09-27T08:00:59.491Z,19.06
2022-09-27T08:03:45.606Z,19.25
2022-09-27T08:06:32.489Z,19.19
2022-09-27T08:09:18.505Z,19.02
2022-09-27T08:12:04.854Z,19.30
2022-09-27T08:14:52.379Z,19.31
2022-09-27T08:17:38.338Z,19.32
2022-09-27T08:20:32.332Z,19.32
2022-09-27T08:23:27.088Z,19.35
2022-09-27T08:26:45.018Z,18.67
2022-09-27T08:29:41.708Z,19.14
2022-09-27T08:32:28.833Z,19.18
2022-09-27T08:35:15.668Z,19.22
2022-09-27T08:38:03.003Z,19.31
2022-09-27T08:41:22.882Z,19.23
2022-09-27T08:44:30.710Z,19.23
2022-09-27T08:47:35.130Z,19.33
2022-09-27T08:50:21.701Z,19.44
2022-09-27T08:53:21.166Z,19.47
2022-09-27T08:56:08.880Z,19.67
2022-09-27T08:59:12.850Z,19.73
2022-09-27T09:01:59.350Z,19.87
2022-09-27T09:04:57.975Z,19.88
2022-09-27T09:07:55.973Z,19.96
2022-09-27T09:11:03.889Z,20.07
2022-09-27T09:13:49.872Z,20.05
2022-09-27T09:16:57.318Z,20.16
2022-09-27T09:19:56.060Z,20.18
2022-09-27T09:22:50.684Z,20.18
2022-09-27T09:25:55.634Z,20.12
2022-09-27T09:29:02.814Z,20.17
2022-09-27T09:32:27.296Z,20.19
2022-09-27T09:35:40.424Z,20.17
2022-09-27T09:38:26.549Z,20.29
2022-09-27T09:41:20.344Z,20.15
2022-09-27T09:44:15.642Z,20.14
2022-09-27T09:47:03.242Z,20.13
2022-09-27T09:49:53.110Z,19.99
2022-09-27T09:52:54.360Z,20.06
2022-09-27T09:55:44.774Z,20.27
2022-09-27T09:58:44.898Z,20.25
2022-09-27T10:01:40.442Z,20.23
2022-09-27T10:04:28.127Z,20.33
2022-09-27T10:07:20.055Z,20.37
2022-09-27T10:10:08.494Z,20.30
2022-09-27T10:13:13.597Z,20.25
2022-09-27T10:16:02.511Z,20.21
2022-09-27T10:18:50.341Z,20.35
2022-09-27T10:21:41.073Z,20.35
2022-09-27T10:24:27.034Z,20.35
2022-09-27T10:27:27.957Z,20.49
2022-09-27T10:30:32.193Z,20.53
2022-09-27T10:33:21.268Z,20.52
2022-09-27T10:36:24.497Z,20.65
2022-09-27T10:39:22.286Z,20.72
2022-09-27T10:42:37.925Z,20.71
2022-09-27T10:45:33.049Z,20.86
2022-09-27T10:48:33.788Z,20.96
2022-09-27T10:51:30.749Z,21.00
2022-09-27T10:54:23.651Z,21.02
2022-09-27T10:57:19.315Z,21.08
2022-09-27T11:00:27.806Z,21.01
2022-09-27T11:03:15.809Z,21.22
2022-09-27T11:06:24.486Z,21.16
2022-09-27T11:09:26.374Z,21.20
2022-09-27T11:12:14.776Z,21.39
2022-09-27T11:15:11.074Z,21.34
2022-09-27T11:18:27.597Z,21.27
2022-09-27T11:21:40.149Z,21.50
2022-09-27T11:24:32.564Z,21.56
2022-09-27T11:27:28.792Z,21.52
2022-09-27T11:30:17.321Z,21.37
2022-09-27T11:33:27.074Z,21.33
2022-09-27T11:36:31.611Z,21.64
2022-09-27T11:39:22.240Z,21.70
2022-09-27T11:42:29.422Z,21.66
2022-09-27T11:45:50.411Z,21.74
2022-09-27T11:49:12.698Z,21.43
2022-09-27T11:52:05.972Z,21.76
2022-09-27T11:55:24.444Z,21.77
2022-09-27T11:58:28.079Z,21.85
2022-09-27T12:01:35.754Z,21.80
2022-09-27T12:04:40.073Z,21.47
2022-09-27T12:07:45.365Z,21.72
2022-09-27T12:10:31.885Z,21.94
2022-09-27T12:13:27.364Z,21.63
2022-09-27T12:16:17.011Z,21.55
2022-09-27T12:19:03.585Z,21.72
2022-09-27T12:22:15.378Z,21.84
2022-09-27T12:25:05.019Z,21.45
2022-09-27T12:28:25.933Z,21.72
2022-09-27T12:31:30.093Z,21.85
2022-09-27T12:34:21.554Z,21.72
2022-09-27T12:37:33.088Z,21.79
2022-09-27T12:40:29.580Z,21.68
2022-09-27T12:43:18.785Z,22.11
2022-09-27T12:46:43.701Z,22.26
2022-09-27T12:49:57.632Z,21.84
2022-09-27T12:52:52.699Z,22.38
2022-09-27T12:56:01.286Z,22.12
2022-09-27T12:59:10.366Z,21.94
2022-09-27T13:02:21.999Z,22.54
2022-09-27T13:05:53.354Z,22.64
2022-09-27T13:09:11.405Z,22.84
2022-09-27T13:12:11.017Z,22.77
2022-09-27T13:15:06.713Z,22.62
2022-09-27T13:17:56.699Z,22.62
2022-09-27T13:20:52.108Z,22.71
2022-09-27T13:23:58.036Z,22.91
2022-09-27T13:26:50.425Z,22.81
2022-09-27T13:29:36.460Z,22.93
2022-09-27T13:32:29.058Z,22.96
2022-09-27T13:35:31.101Z,23.11
2022-09-27T13:38:25.573Z,23.20
2022-09-27T13:41:18.189Z,23.17
2022-09-27T13:44:34.177Z,23.46
2022-09-27T13:47:36.167Z,23.92
2022-09-27T13:50:48.958Z,24.42
2022-09-27T13:53:39.541Z,24.83
2022-09-27T13:56:36.757Z,25.31
2022-09-27T13:59:49.296Z,25.70
2022-09-27T14:03:15.660Z,26.62
2022-09-27T14:06:08.875Z,27.03
2022-09-27T14:08:58.576Z,27.36
2022-09-27T14:11:50.825Z,27.66
2022-09-27T14:14:37.506Z,27.81
2022-09-27T14:17:23.981Z,27.98
2022-09-27T14:20:33.154Z,27.95
2022-09-27T14:23:23.477Z,28.00
2022-09-27T14:26:27.797Z,28.05
2022-09-27T14:29:22.334Z,28.06
2022-09-27T14:32:13.525Z,28.33
2022-09-27T14:35:34.594Z,28.60
2022-09-27T14:38:38.940Z,28.97
2022-09-27T14:41:45.838Z,29.09
2022-09-27T14:44:32.520Z,29.26
2022-09-27T14:47:20.026Z,29.42
2022-09-27T14:50:30.114Z,29.16
2022-09-27T14:53:25.858Z,29.43
2022-09-27T14:56:18.085Z,29.16
2022-09-27T14:59:17.036Z,29.09
2022-09-27T15:02:10.355Z,29.13
2022-09-27T15:04:56.551Z,29.16
2022-09-27T15:07:44.383Z,29.12
2022-09-27T15:10:33.610Z,29.09
2022-09-27T15:13:19.744Z,29.02
2022-09-27T15:16:16.459Z,28.89
2022-09-27T15:19:29.419Z,28.80
2022-09-27T15:22:24.637Z,28.68
2022-09-27T15:25:24.629Z,28.58
2022-09-27T15:28:19.412Z,28.46
2022-09-27T15:31:07.765Z,28.51
2022-09-27T15:33:56.038Z,28.56
2022-09-27T15:36:55.097Z,28.44
2022-09-27T15:39:42.194Z,28.33
2022-09-27T15:42:28.000Z,28.05
2022-09-27T15:45:34.987Z,27.69
2022-09-27T15:48:21.277Z,27.43
2022-09-27T15:51:40.359Z,27.05
2022-09-27T15:54:30.273Z,26.71
2022-09-27T15:57:16.490Z,26.50
2022-09-27T16:00:02.627Z,26.21
2022-09-27T16:02:57.660Z,25.92
2022-09-27T16:05:43.912Z,25.66
2022-09-27T16:08:30.196Z,25.46
2022-09-27T16:11:17.491Z,25.09
2022-09-27T16:14:03.783Z,24.96
2022-09-27T16:16:51.884Z,24.73
2022-09-27T16:19:37.995Z,24.50
2022-09-27T16:22:24.173Z,24.34
2022-09-27T16:25:10.499Z,24.05
2022-09-27T16:28:00.665Z,23.88
2022-09-27T16:30:48.070Z,23.77
2022-09-27T16:33:35.769Z,23.53
2022-09-27T16:36:21.867Z,23.48
2022-09-27T16:39:12.950Z,23.33
2022-09-27T16:41:59.936Z,23.19
2022-09-27T16:44:48.173Z,23.04
2022-09-27T16:47:34.459Z,22.89
2022-09-27T16:50:39.121Z,22.72
2022-09-27T16:53:25.315Z,22.64
2022-09-27T16:56:11.948Z,22.52
2022-09-27T16:58:59.364Z,22.41
2022-09-27T17:01:45.341Z,22.27
2022-09-27T17:04:31.776Z,22.15
2022-09-27T17:07:18.268Z,22.03
2022-09-27T17:10:05.157Z,21.99
2022-09-27T17:12:51.185Z,21.80
2022-09-27T17:15:37.942Z,21.68
2022-09-27T17:18:24.176Z,21.52
2022-09-27T17:21:10.312Z,21.45
2022-09-27T17:23:57.037Z,21.32
2022-09-27T17:26:43.610Z,21.22
2022-09-27T17:29:31.717Z,21.13
2022-09-27T17:32:24.207Z,21.03
2022-09-27T17:35:10.701Z,20.89
2022-09-27T17:37:56.574Z,20.81
2022-09-27T17:40:42.470Z,20.75
2022-09-27T17:43:32.059Z,20.62
2022-09-27T17:46:19.939Z,20.54
2022-09-27T17:49:24.657Z,20.55
2022-09-27T17:52:10.714Z,20.42
2022-09-27T17:54:58.452Z,20.23
2022-09-27T17:57:47.766Z,20.27
2022-09-27T18:00:34.273Z,20.18
2022-09-27T18:03:20.824Z,20.15
2022-09-27T18:06:07.769Z,20.05
2022-09-27T18:08:54.907Z,19.96
2022-09-27T18:11:41.088Z,19.77
2022-09-27T18:14:27.455Z,19.77
2022-09-27T18:17:13.439Z,19.61
2022-09-27T18:20:02.104Z,19.59
2022-09-27T18:22:48.032Z,19.57
2022-09-27T18:25:40.447Z,19.40
2022-09-27T18:28:29.841Z,19.39
2022-09-27T18:31:17.214Z,19.35
2022-09-27T18:34:03.942Z,19.25
2022-09-27T18:36:49.907Z,19.21
2022-09-27T18:39:36.253Z,19.15
2022-09-27T18:42:22.204Z,19.11
2022-09-27T18:45:08.747Z,19.03
2022-09-27T18:47:55.428Z,18.97
2022-09-27T18:50:41.373Z,18.88
2022-09-27T18:53:27.388Z,18.84
2022-09-27T18:56:15.669Z,18.72
2022-09-27T18:59:01.714Z,18.73
2022-09-27T19:01:47.910Z,18.68
2022-09-27T19:04:33.925Z,18.61
2022-09-27T19:07:20.348Z,18.54
2022-09-27T19:10:07.121Z,18.52
2022-09-27T19:12:56.904Z,18.48
2022-09-27T19:15:43.666Z,18.40
2022-09-27T19:18:30.026Z,18.27
2022-09-27T19:21:21.496Z,18.24
2022-09-27T19:24:07.848Z,18.15
2022-09-27T19:26:55.932Z,18.07
2022-09-27T19:29:41.853Z,17.93
2022-09-27T19:32:27.865Z,17.97
2022-09-27T19:35:14.093Z,17.87
2022-09-27T19:38:00.097Z,17.83
2022-09-27T19:40:53.516Z,17.75
2022-09-27T19:43:40.040Z,17.61
2022-09-27T19:46:26.657Z,17.66
2022-09-27T19:49:13.080Z,17.56
2022-09-27T19:51:59.366Z,17.53
2022-09-27T19:54:45.822Z,17.47
2022-09-27T19:57:31.894Z,17.32
2022-09-27T20:00:18.236Z,17.40
2022-09-27T20:03:04.354Z,17.31
2022-09-27T20:05:57.048Z,17.30
2022-09-27T20:08:44.189Z,17.17
2022-09-27T20:11:31.384Z,17.23
2022-09-27T20:14:17.991Z,17.08
2022-09-27T20:17:04.049Z,17.18
2022-09-27T20:19:50.121Z,17.09
2022-09-27T20:22:36.079Z,17.07
2022-09-27T20:25:23.114Z,17.04
2022-09-27T20:28:09.122Z,16.98
2022-09-27T20:30:59.981Z,16.93
2022-09-27T20:33:50.860Z,16.92
2022-09-27T20:36:39.676Z,16.88
2022-09-27T20:39:26.053Z,16.85
2022-09-27T20:42:12.258Z,16.81
2022-09-27T20:44:58.366Z,16.76
2022-09-27T20:47:44.488Z,16.71
2022-09-27T20:50:30.479Z,16.64
2022-09-27T20:53:16.655Z,16.66
2022-09-27T20:56:02.989Z,16.62
2022-09-27T20:58:51.238Z,16.59
2022-09-27T21:01:37.192Z,16.46
2022-09-27T21:04:23.645Z,16.46
2022-09-27T21:07:09.448Z,16.33
2022-09-27T21:09:55.676Z,16.27
2022-09-27T21:12:41.459Z,16.21
2022-09-27T21:15:27.491Z,16.26
2022-09-27T21:18:13.961Z,16.23
2022-09-27T21:21:12.438Z,16.17
2022-09-27T21:24:01.157Z,16.11
2022-09-27T21:26:47.350Z,16.05
2022-09-27T21:29:33.193Z,16.09
2022-09-27T21:32:19.205Z,16.01
2022-09-27T21:35:05.806Z,15.85
2022-09-27T21:37:51.834Z,15.91
2022-09-27T21:40:37.968Z,15.76
2022-09-27T21:43:28.222Z,15.79
2022-09-27T21:46:16.506Z,15.69
2022-09-27T21:49:02.953Z,15.70
2022-09-27T21:51:48.824Z,15.76
2022-09-27T21:54:34.837Z,15.73
2022-09-27T21:57:20.862Z,15.72
2022-09-27T22:00:07.669Z,15.68
2022-09-27T22:02:59.625Z,15.67
2022-09-27T22:05:46.625Z,15.61
2022-09-27T22:08:33.091Z,15.61
2022-09-27T22:11:24.878Z,15.62
2022-09-27T22:14:11.751Z,15.59
2022-09-27T22:16:57.762Z,15.48
2022-09-27T22:19:43.786Z,15.49
2022-09-27T22:22:29.528Z,15.56
2022-09-27T22:25:15.511Z,15.39
2022-09-27T22:28:02.046Z,15.43
2022-09-27T22:30:47.941Z,15.41
2022-09-27T22:33:34.155Z,15.28
2022-09-27T22:36:21.304Z,15.37
2022-09-27T22:39:07.220Z,15.33
2022-09-27T22:41:53.004Z,15.33
2022-09-27T22:44:39.397Z,15.26
2022-09-27T22:47:25.301Z,15.11
2022-09-27T22:50:11.860Z,15.17
2022-09-27T22:52:57.839Z,15.06
2022-09-27T22:55:43.568Z,14.99
2022-09-27T22:58:29.882Z,14.75
2022-09-27T23:01:24.169Z,14.97
2022-09-27T23:04:10.142Z,14.95
2022-09-27T23:06:55.844Z,14.82
2022-09-27T23:09:41.753Z,14.75
2022-09-27T23:12:27.503Z,14.77
2022-09-27T23:15:18.403Z,14.65
2022-09-27T23:18:06.496Z,14.66
2022-09-27T23:20:52.605Z,14.58
2022-09-27T23:23:41.264Z,14.58
2022-09-27T23:26:28.070Z,14.58
2022-09-27T23:29:14.217Z,14.56
2022-09-27T23:32:00.773Z,14.53
2022-09-27T23:34:46.818Z,14.44
2022-09-27T23:37:32.786Z,14.52
2022-09-27T23:40:18.715Z,14.21
2022-09-27T23:43:04.688Z,14.49
2022-09-27T23:45:50.931Z,14.52
2022-09-27T23:48:37.299Z,14.41
2022-09-27T23:51:23.118Z,14.34
2022-09-27T23:54:09.063Z,14.41
2022-09-27T23:56:54.941Z,14.42
2022-09-27T23:59:41.047Z,14.46
